Time,TemperatureF,DewpointF,PressureIn,WindDirection,WindDirectionDegrees,WindSpeedMPH,WindSpeedGustMPH,Humidity,HourlyPrecipIn,Conditions,Clouds,dailyrainin,SolarRadiationWatts/m^2,SoftwareType,DateUTC
2013-02-01 00:01:00,73.0,61.0,-100.00,SSE,149,3.0,9.0,67,0.00,,,0.00,0.000000,,2013-02-01 10:01:00,
2013-02-01 00:11:00,73.0,61.0,-100.00,SSE,149,3.0,9.0,67,0.00,,,0.00,0.000000,,2013-02-01 10:11:00,
2013-02-01 00:21:00,73.0,61.0,-100.00,SSE,149,3.0,9.0,67,0.00,,,0.00,0.000000,,2013-02-01 10:21:00,
2013-02-01 00:43:00,75.0,57.0,-100.00,West,269,4.0,14.0,54,0.00,,,-99.99,0.000000,,2013-02-01 10:43:00,
2013-02-01 00:53:00,75.0,57.0,-100.00,West,269,4.0,14.0,54,0.00,,,-99.99,0.000000,,2013-02-01 10:53:00,
2013-02-01 01:01:00,75.0,57.0,-100.00,West,269,4.0,14.0,54,0.00,,,-99.99,0.000000,,2013-02-01 11:01:00,
2013-02-01 01:11:00,75.0,57.0,-100.00,West,269,4.0,14.0,54,0.00,,,-99.99,0.000000,,2013-02-01 11:11:00,
2013-02-01 01:21:00,75.0,57.0,-100.00,West,269,4.0,14.0,54,0.00,,,-99.99,0.000000,,2013-02-01 11:21:00,
2013-02-01 01:42:00,75.0,57.0,-100.00,West,275,5.0,16.0,54,0.00,,,0.00,0.000000,,2013-02-01 11:42:00,
2013-02-01 01:53:00,75.0,57.0,-100.00,West,275,5.0,16.0,54,0.00,,,0.00,0.000000,,2013-02-01 11:53:00,
2013-02-01 02:02:00,75.0,57.0,-100.00,West,275,5.0,16.0,54,0.00,,,0.00,0.000000,,2013-02-01 12:02:00,
2013-02-01 02:12:00,75.0,57.0,-100.00,West,275,5.0,16.0,54,0.00,,,0.00,0.000000,,2013-02-01 12:12:00,
2013-02-01 02:22:00,75.0,57.0,-100.00,West,275,5.0,16.0,54,0.00,,,0.00,0.000000,,2013-02-01 12:22:00,
2013-02-01 02:42:00,75.0,59.0,-100.00,SW,227,5.0,19.0,57,0.00,,,0.00,0.000000,,2013-02-01 12:42:00,
2013-02-01 02:52:00,75.0,59.0,-100.00,SW,227,5.0,19.0,57,0.00,,,0.00,0.000000,,2013-02-01 12:52:00,
2013-02-01 03:02:00,75.0,59.0,-100.00,SW,227,5.0,19.0,57,0.00,,,0.00,0.000000,,2013-02-01 13:02:00,
2013-02-01 03:11:00,75.0,59.0,-100.00,SW,227,5.0,19.0,57,0.00,,,0.00,0.000000,,2013-02-01 13:11:00,
2013-02-01 03:21:00,75.0,59.0,-100.00,SW,227,5.0,19.0,57,0.00,,,0.00,0.000000,,2013-02-01 13:21:00,
2013-02-01 03:42:00,76.0,57.0,-100.00,West,274,4.0,16.0,52,0.00,,,0.00,0.000000,,2013-02-01 13:42:00,
2013-02-01 03:53:00,76.0,57.0,-100.00,West,274,4.0,16.0,52,0.00,,,0.00,0.000000,,2013-02-01 13:53:00,
2013-02-01 04:03:00,76.0,57.0,-100.00,West,274,4.0,16.0,52,0.00,,,0.00,0.000000,,2013-02-01 14:03:00,
2013-02-01 04:11:00,76.0,57.0,-100.00,West,274,4.0,16.0,52,0.00,,,0.00,0.000000,,2013-02-01 14:11:00,
2013-02-01 04:21:00,76.0,57.0,-100.00,West,274,4.0,16.0,52,0.00,,,0.00,0.000000,,2013-02-01 14:21:00,
2013-02-01 04:42:00,75.0,62.0,-100.00,SW,234,6.0,23.0,63,0.00,,,0.00,0.000000,,2013-02-01 14:42:00,
2013-02-01 04:52:00,75.0,62.0,-100.00,SW,234,6.0,23.0,63,0.00,,,0.00,0.000000,,2013-02-01 14:52:00,
2013-02-01 05:02:00,75.0,62.0,-100.00,SW,234,6.0,23.0,63,0.00,,,0.00,0.000000,,2013-02-01 15:02:00,
2013-02-01 05:11:00,75.0,62.0,-100.00,SW,234,6.0,23.0,63,0.00,,,0.00,0.000000,,2013-02-01 15:11:00,
2013-02-01 05:21:00,75.0,62.0,-100.00,SW,234,6.0,23.0,63,0.00,,,0.00,0.000000,,2013-02-01 15:21:00,
2013-02-01 05:42:00,74.0,59.0,-100.00,NW,322,5.0,15.0,59,0.00,,,0.00,0.000000,,2013-02-01 15:42:00,
2013-02-01 05:52:00,74.0,59.0,-100.00,NW,322,5.0,15.0,59,0.00,,,0.00,0.000000,,2013-02-01 15:52:00,
2013-02-01 06:02:00,74.0,59.0,-100.00,NW,322,5.0,15.0,59,0.00,,,0.00,0.000000,,2013-02-01 16:02:00,
2013-02-01 06:11:00,74.0,59.0,-100.00,NW,322,5.0,15.0,59,0.00,,,0.00,0.000000,,2013-02-01 16:11:00,
2013-02-01 06:21:00,74.0,59.0,-100.00,NW,322,5.0,15.0,59,0.00,,,0.00,0.000000,,2013-02-01 16:21:00,
2013-02-01 06:43:00,75.0,59.0,-100.00,WSW,244,6.0,22.0,57,0.00,,,0.00,0.000000,,2013-02-01 16:43:00,
2013-02-01 06:52:00,75.0,59.0,-100.00,WSW,244,6.0,22.0,57,0.00,,,0.00,0.000000,,2013-02-01 16:52:00,
2013-02-01 07:02:00,75.0,59.0,-100.00,WSW,244,6.0,22.0,57,0.00,,,0.00,0.000000,,2013-02-01 17:02:00,
2013-02-01 07:11:00,75.0,59.0,-100.00,WSW,244,6.0,22.0,57,0.00,,,0.00,0.000000,,2013-02-01 17:11:00,
2013-02-01 07:21:00,75.0,59.0,-100.00,WSW,244,6.0,22.0,57,0.00,,,0.00,0.000000,,2013-02-01 17:21:00,
2013-02-01 07:42:00,74.0,61.0,-100.00,SW,223,5.0,15.0,64,0.00,,,0.00,0.000000,,2013-02-01 17:42:00,
2013-02-01 07:53:00,74.0,61.0,-100.00,SW,223,5.0,15.0,64,0.00,,,0.00,0.000000,,2013-02-01 17:53:00,
2013-02-01 08:02:00,74.0,61.0,-100.00,SW,223,5.0,15.0,64,0.00,,,0.00,0.000000,,2013-02-01 18:02:00,
2013-02-01 08:11:00,74.0,61.0,-100.00,SW,223,5.0,15.0,64,0.00,,,0.00,0.000000,,2013-02-01 18:11:00,
2013-02-01 08:21:00,74.0,61.0,-100.00,SW,223,5.0,15.0,64,0.00,,,0.00,0.000000,,2013-02-01 18:21:00,
2013-02-01 08:42:00,74.0,60.0,-100.00,WSW,249,5.0,12.0,62,0.00,,,0.00,65.000000,,2013-02-01 18:42:00,
2013-02-01 08:53:00,74.0,60.0,-100.00,WSW,249,5.0,12.0,62,0.00,,,0.00,65.000000,,2013-02-01 18:53:00,
2013-02-01 09:02:00,74.0,60.0,-100.00,WSW,249,5.0,12.0,62,0.00,,,0.00,65.000000,,2013-02-01 19:02:00,
2013-02-01 09:11:00,74.0,60.0,-100.00,WSW,249,5.0,12.0,62,0.00,,,0.00,65.000000,,2013-02-01 19:11:00,
2013-02-01 09:21:00,74.0,60.0,-100.00,WSW,249,5.0,12.0,62,0.00,,,0.00,65.000000,,2013-02-01 19:21:00,
2013-02-01 09:42:00,77.0,58.0,-100.00,WSW,248,4.0,12.0,52,0.00,,,0.00,318.000000,,2013-02-01 19:42:00,
2013-02-01 09:52:00,77.0,58.0,-100.00,WSW,248,4.0,12.0,52,0.00,,,0.00,318.000000,,2013-02-01 19:52:00,
2013-02-01 10:02:00,77.0,58.0,-100.00,WSW,248,4.0,12.0,52,0.00,,,0.00,318.000000,,2013-02-01 20:02:00,
2013-02-01 10:11:00,77.0,58.0,-100.00,WSW,248,4.0,12.0,52,0.00,,,0.00,318.000000,,2013-02-01 20:11:00,
2013-02-01 10:21:00,77.0,58.0,-100.00,WSW,248,4.0,12.0,52,0.00,,,0.00,318.000000,,2013-02-01 20:21:00,
2013-02-01 10:42:00,79.0,47.0,-100.00,WNW,291,7.0,28.0,33,0.00,,,0.00,528.000000,,2013-02-01 20:42:00,
2013-02-01 10:52:00,79.0,47.0,-100.00,WNW,291,7.0,28.0,33,0.00,,,0.00,528.000000,,2013-02-01 20:52:00,
2013-02-01 11:01:00,79.0,47.0,-100.00,WNW,291,7.0,28.0,33,0.00,,,0.00,528.000000,,2013-02-01 21:01:00,
2013-02-01 11:11:00,79.0,47.0,-100.00,WNW,291,7.0,28.0,33,0.00,,,0.00,528.000000,,2013-02-01 21:11:00,
2013-02-01 11:21:00,79.0,47.0,-100.00,WNW,291,7.0,28.0,33,0.00,,,0.00,528.000000,,2013-02-01 21:21:00,
2013-02-01 11:42:00,80.0,49.0,-100.00,East,85,21.0,41.0,34,0.00,,,0.00,716.000000,,2013-02-01 21:42:00,
2013-02-01 11:52:00,80.0,49.0,-100.00,East,85,21.0,41.0,34,0.00,,,0.00,716.000000,,2013-02-01 21:52:00,
2013-02-01 12:02:00,80.0,49.0,-100.00,East,85,21.0,41.0,34,0.00,,,0.00,716.000000,,2013-02-01 22:02:00,
2013-02-01 12:11:00,80.0,49.0,-100.00,East,85,21.0,41.0,34,0.00,,,0.00,716.000000,,2013-02-01 22:11:00,
2013-02-01 12:21:00,80.0,49.0,-100.00,East,85,21.0,41.0,34,0.00,,,0.00,716.000000,,2013-02-01 22:21:00,
2013-02-01 12:42:00,81.0,49.0,-100.00,East,89,22.0,44.0,33,0.00,,,0.00,836.000000,,2013-02-01 22:42:00,
2013-02-01 12:52:00,81.0,49.0,-100.00,East,89,22.0,44.0,33,0.00,,,0.00,836.000000,,2013-02-01 22:52:00,
2013-02-01 13:01:00,81.0,49.0,-100.00,East,89,22.0,44.0,33,0.00,,,0.00,836.000000,,2013-02-01 23:01:00,
2013-02-01 13:11:00,81.0,49.0,-100.00,East,89,22.0,44.0,33,0.00,,,0.00,836.000000,,2013-02-01 23:11:00,
2013-02-01 13:21:00,81.0,49.0,-100.00,East,89,22.0,44.0,33,0.00,,,0.00,836.000000,,2013-02-01 23:21:00,
2013-02-01 13:42:00,82.0,47.0,-100.00,East,86,25.0,45.0,30,0.00,,,0.00,891.000000,,2013-02-01 23:42:00,
2013-02-01 13:52:00,82.0,47.0,-100.00,East,86,25.0,45.0,30,0.00,,,0.00,891.000000,,2013-02-01 23:52:00,
2013-02-01 14:02:00,82.0,47.0,-100.00,East,86,25.0,45.0,30,0.00,,,0.00,891.000000,,2013-02-02 00:02:00,
2013-02-01 14:11:00,82.0,47.0,-100.00,East,86,25.0,45.0,30,0.00,,,0.00,891.000000,,2013-02-02 00:11:00,
2013-02-01 14:21:00,82.0,47.0,-100.00,East,86,25.0,45.0,30,0.00,,,0.00,891.000000,,2013-02-02 00:21:00,
2013-02-01 14:42:00,84.0,43.0,-100.00,East,91,25.0,39.0,24,0.00,,,0.00,862.000000,,2013-02-02 00:42:00,
2013-02-01 14:52:00,84.0,43.0,-100.00,East,91,25.0,39.0,24,0.00,,,0.00,862.000000,,2013-02-02 00:52:00,
2013-02-01 15:02:00,84.0,43.0,-100.00,East,91,25.0,39.0,24,0.00,,,0.00,862.000000,,2013-02-02 01:02:00,
2013-02-01 15:11:00,84.0,43.0,-100.00,East,91,25.0,39.0,24,0.00,,,0.00,862.000000,,2013-02-02 01:11:00,
2013-02-01 15:21:00,84.0,43.0,-100.00,East,91,25.0,39.0,24,0.00,,,0.00,862.000000,,2013-02-02 01:21:00,
2013-02-01 15:42:00,85.0,51.0,-100.00,ENE,60,16.0,34.0,31,0.00,,,0.00,751.000000,,2013-02-02 01:42:00,
2013-02-01 15:52:00,85.0,51.0,-100.00,ENE,60,16.0,34.0,31,0.00,,,0.00,751.000000,,2013-02-02 01:52:00,
2013-02-01 16:01:00,85.0,51.0,-100.00,ENE,60,16.0,34.0,31,0.00,,,0.00,751.000000,,2013-02-02 02:01:00,
2013-02-01 16:11:00,85.0,51.0,-100.00,ENE,60,16.0,34.0,31,0.00,,,0.00,751.000000,,2013-02-02 02:11:00,
2013-02-01 16:21:00,85.0,51.0,-100.00,ENE,60,16.0,34.0,31,0.00,,,0.00,751.000000,,2013-02-02 02:21:00,
2013-02-01 16:42:00,83.0,60.0,-100.00,West,268,8.0,34.0,46,0.00,,,0.00,570.000000,,2013-02-02 02:42:00,
2013-02-01 16:52:00,83.0,60.0,-100.00,West,268,8.0,34.0,46,0.00,,,0.00,570.000000,,2013-02-02 02:52:00,
2013-02-01 17:02:00,83.0,60.0,-100.00,West,268,8.0,34.0,46,0.00,,,0.00,570.000000,,2013-02-02 03:02:00,
2013-02-01 17:11:00,83.0,60.0,-100.00,West,268,8.0,34.0,46,0.00,,,0.00,570.000000,,2013-02-02 03:11:00,
2013-02-01 17:21:00,83.0,60.0,-100.00,West,268,8.0,34.0,46,0.00,,,0.00,570.000000,,2013-02-02 03:21:00,
2013-02-01 17:42:00,80.0,53.0,-100.00,SW,226,6.0,12.0,40,0.00,,,0.00,356.000000,,2013-02-02 03:42:00,
2013-02-01 17:52:00,80.0,53.0,-100.00,SW,226,6.0,12.0,40,0.00,,,0.00,356.000000,,2013-02-02 03:52:00,
2013-02-01 18:01:00,80.0,53.0,-100.00,SW,226,6.0,12.0,40,0.00,,,0.00,356.000000,,2013-02-02 04:01:00,
2013-02-01 18:11:00,80.0,53.0,-100.00,SW,226,6.0,12.0,40,0.00,,,0.00,356.000000,,2013-02-02 04:11:00,
2013-02-01 18:21:00,80.0,53.0,-100.00,SW,226,6.0,12.0,40,0.00,,,0.00,356.000000,,2013-02-02 04:21:00,
2013-02-01 18:42:00,79.0,60.0,-100.00,West,268,5.0,11.0,53,0.00,,,0.00,130.000000,,2013-02-02 04:42:00,
2013-02-01 18:52:00,79.0,60.0,-100.00,West,268,5.0,11.0,53,0.00,,,0.00,130.000000,,2013-02-02 04:52:00,
2013-02-01 19:03:00,79.0,60.0,-100.00,West,268,5.0,11.0,53,0.00,,,0.00,130.000000,,2013-02-02 05:03:00,
2013-02-01 19:11:00,79.0,60.0,-100.00,West,268,5.0,11.0,53,0.00,,,0.00,130.000000,,2013-02-02 05:11:00,
2013-02-01 19:22:00,79.0,60.0,-100.00,West,268,5.0,11.0,53,0.00,,,0.00,130.000000,,2013-02-02 05:22:00,
2013-02-01 19:42:00,76.0,51.0,-100.00,South,189,3.0,10.0,42,0.00,,,0.00,3.000000,,2013-02-02 05:42:00,
2013-02-01 19:52:00,76.0,51.0,-100.00,South,189,3.0,10.0,42,0.00,,,0.00,3.000000,,2013-02-02 05:52:00,
2013-02-01 20:02:00,76.0,51.0,-100.00,South,189,3.0,10.0,42,0.00,,,0.00,3.000000,,2013-02-02 06:02:00,
2013-02-01 20:12:00,76.0,51.0,-100.00,South,189,3.0,10.0,42,0.00,,,0.00,3.000000,,2013-02-02 06:12:00,
2013-02-01 20:21:00,76.0,51.0,-100.00,South,189,3.0,10.0,42,0.00,,,0.00,3.000000,,2013-02-02 06:21:00,
2013-02-01 20:42:00,76.0,50.0,-100.00,ESE,111,6.0,28.0,40,0.00,,,0.00,0.000000,,2013-02-02 06:42:00,
2013-02-01 20:52:00,76.0,50.0,-100.00,ESE,111,6.0,28.0,40,0.00,,,0.00,0.000000,,2013-02-02 06:52:00,
2013-02-01 21:02:00,76.0,50.0,-100.00,ESE,111,6.0,28.0,40,0.00,,,0.00,0.000000,,2013-02-02 07:02:00,
2013-02-01 21:11:00,76.0,50.0,-100.00,ESE,111,6.0,28.0,40,0.00,,,0.00,0.000000,,2013-02-02 07:11:00,
2013-02-01 21:21:00,76.0,50.0,-100.00,ESE,111,6.0,28.0,40,0.00,,,0.00,0.000000,,2013-02-02 07:21:00,
2013-02-01 21:42:00,75.0,53.0,-100.00,ESE,105,13.0,37.0,46,0.00,,,0.00,0.000000,,2013-02-02 07:42:00,
2013-02-01 21:52:00,75.0,53.0,-100.00,ESE,105,13.0,37.0,46,0.00,,,0.00,0.000000,,2013-02-02 07:52:00,
2013-02-01 22:01:00,75.0,53.0,-100.00,ESE,105,13.0,37.0,46,0.00,,,0.00,0.000000,,2013-02-02 08:01:00,
2013-02-01 22:11:00,75.0,53.0,-100.00,ESE,105,13.0,37.0,46,0.00,,,0.00,0.000000,,2013-02-02 08:11:00,
2013-02-01 22:21:00,75.0,53.0,-100.00,ESE,105,13.0,37.0,46,0.00,,,0.00,0.000000,,2013-02-02 08:21:00,
2013-02-01 22:42:00,73.0,53.0,-100.00,East,93,17.0,35.0,49,0.00,,,0.00,0.000000,,2013-02-02 08:42:00,
2013-02-01 22:53:00,73.0,53.0,-100.00,East,93,17.0,35.0,49,0.00,,,0.00,0.000000,,2013-02-02 08:53:00,
2013-02-01 23:01:00,73.0,53.0,-100.00,East,93,17.0,35.0,49,0.00,,,0.00,0.000000,,2013-02-02 09:01:00,
2013-02-01 23:11:00,73.0,53.0,-100.00,East,93,17.0,35.0,49,0.00,,,0.00,0.000000,,2013-02-02 09:11:00,
2013-02-01 23:22:00,73.0,53.0,-100.00,East,93,17.0,35.0,49,0.00,,,0.00,0.000000,,2013-02-02 09:22:00,
2013-02-01 23:42:00,72.0,53.0,-100.00,East,97,18.0,42.0,52,0.00,,,0.00,0.000000,,2013-02-02 09:42:00,
2013-02-01 23:52:00,72.0,53.0,-100.00,East,97,18.0,42.0,52,0.00,,,0.00,0.000000,,2013-02-02 09:52:00,